Terminal Aerodrome Forecast
Issued by NWS

Home | Current Version | Previous Version | Text Only | Print | Product List | Glossary On
Versions: 1 2 3 4 5 6 7 8 9 10 11 12 13 14
000
FTUS41 KBTV 271722
TAFRUT
TAF
KRUT 271722Z 2718/2818 33008G18KT P6SM VCSH BKN025 OVC035
     FM272200 34012G18KT P6SM OVC025
     FM280000 36012KT P6SM OVC025
     FM280600 35008KT P6SM OVC025
     FM281100 35010KT P6SM OVC050
     FM281500 34013G20KT P6SM BKN060
      AMD LTD TO CLD VIS AND WIND=

USA.gov is the U.S. government's official web portal to all federal, state and local government web resources and services.